createdAt,value
2018-06-27T00:00:03.946Z,2.17
2018-06-27T00:02:31.620Z,2.25
2018-06-27T00:04:59.302Z,3.67
2018-06-27T00:07:27.357Z,1.90
2018-06-27T00:09:54.978Z,2.37
2018-06-27T00:12:22.614Z,2.10
2018-06-27T00:14:50.304Z,1.92
2018-06-27T00:17:17.957Z,2.35
2018-06-27T00:19:45.662Z,2.05
2018-06-27T00:22:13.310Z,2.00
2018-06-27T00:24:40.976Z,2.08
2018-06-27T00:27:08.682Z,1.90
2018-06-27T00:29:36.314Z,2.12
2018-06-27T00:32:03.958Z,2.40
2018-06-27T00:34:31.697Z,1.98
2018-06-27T00:36:59.486Z,2.30
2018-06-27T00:39:27.152Z,2.33
2018-06-27T00:41:54.814Z,2.15
2018-06-27T00:44:22.478Z,3.75
2018-06-27T00:46:50.124Z,2.10
2018-06-27T00:49:17.810Z,2.58
2018-06-27T00:51:45.545Z,2.30
2018-06-27T00:54:13.177Z,2.60
2018-06-27T00:56:41.413Z,2.10
2018-06-27T00:59:09.452Z,3.20
2018-06-27T01:01:37.669Z,2.27
2018-06-27T01:04:05.408Z,2.10
2018-06-27T01:06:33.114Z,2.30
2018-06-27T01:09:01.065Z,2.42
2018-06-27T01:11:28.732Z,3.05
2018-06-27T01:13:56.402Z,2.02
2018-06-27T01:16:24.102Z,2.45
2018-06-27T01:18:51.743Z,2.58
2018-06-27T01:21:19.505Z,2.77
2018-06-27T01:23:47.180Z,2.60
2018-06-27T01:26:15.043Z,2.60
2018-06-27T01:28:42.720Z,2.87
2018-06-27T01:31:10.384Z,6.05
2018-06-27T01:33:38.033Z,3.17
2018-06-27T01:36:05.682Z,4.45
2018-06-27T01:38:33.436Z,2.35
2018-06-27T01:41:01.186Z,4.35
2018-06-27T01:43:28.902Z,3.17
2018-06-27T01:45:56.520Z,4.17
2018-06-27T01:48:24.174Z,5.92
2018-06-27T01:50:51.911Z,3.50
2018-06-27T01:53:19.544Z,4.40
2018-06-27T01:55:47.203Z,2.00
2018-06-27T01:58:14.850Z,3.08
2018-06-27T02:00:42.496Z,3.05
2018-06-27T02:03:10.145Z,4.75
2018-06-27T02:05:37.786Z,1.98
2018-06-27T02:08:05.756Z,4.05
2018-06-27T02:10:33.434Z,2.98
2018-06-27T02:13:01.134Z,3.35
2018-06-27T02:15:28.748Z,2.40
2018-06-27T02:17:56.418Z,4.40
2018-06-27T02:20:24.054Z,3.67
2018-06-27T02:22:51.706Z,3.20
2018-06-27T02:25:19.385Z,7.00
2018-06-27T02:27:47.010Z,5.10
2018-06-27T02:30:14.687Z,4.62
2018-06-27T02:32:42.377Z,4.58
2018-06-27T02:35:10.051Z,3.50
2018-06-27T02:37:37.703Z,3.33
2018-06-27T02:40:05.438Z,4.58
2018-06-27T02:42:33.118Z,4.42
2018-06-27T02:45:00.790Z,3.72
2018-06-27T02:47:28.434Z,5.70
2018-06-27T02:49:56.206Z,4.10
2018-06-27T02:52:23.812Z,4.45
2018-06-27T02:54:51.518Z,4.87
2018-06-27T02:57:19.192Z,3.47
2018-06-27T02:59:46.901Z,3.80
2018-06-27T03:02:14.578Z,4.20
2018-06-27T03:04:42.257Z,4.15
2018-06-27T03:07:09.899Z,3.77
2018-06-27T03:09:37.598Z,4.12
2018-06-27T03:12:05.518Z,3.00
2018-06-27T03:14:33.179Z,4.85
2018-06-27T03:17:00.841Z,6.47
2018-06-27T03:19:28.542Z,4.60
2018-06-27T03:21:56.210Z,4.37
2018-06-27T03:24:23.886Z,3.45
2018-06-27T03:26:51.554Z,5.12
2018-06-27T03:29:19.213Z,4.40
2018-06-27T03:31:46.845Z,3.87
2018-06-27T03:34:14.538Z,4.00
2018-06-27T03:36:42.195Z,3.62
2018-06-27T03:39:09.928Z,3.72
2018-06-27T03:41:37.624Z,4.15
2018-06-27T03:44:05.405Z,3.75
2018-06-27T03:46:33.425Z,4.00
2018-06-27T03:49:01.228Z,4.12
2018-06-27T03:51:28.869Z,4.37
2018-06-27T03:53:58.114Z,15.63
2018-06-27T03:56:26.249Z,6.70
2018-06-27T03:58:53.951Z,5.20
2018-06-27T04:01:21.583Z,6.70
2018-06-27T04:03:49.239Z,8.25
2018-06-27T04:06:16.948Z,6.12
2018-06-27T04:08:44.621Z,7.10
2018-06-27T04:11:12.302Z,8.85
2018-06-27T04:13:39.969Z,8.13
2018-06-27T04:16:07.647Z,10.25
2018-06-27T04:18:35.319Z,12.50
2018-06-27T04:21:03.080Z,13.13
2018-06-27T04:23:30.744Z,15.23
2018-06-27T04:25:58.430Z,13.25
2018-06-27T04:28:26.058Z,12.60
2018-06-27T04:30:53.702Z,15.05
2018-06-27T04:33:21.363Z,11.50
2018-06-27T04:35:49.413Z,13.93
2018-06-27T04:38:17.620Z,14.98
2018-06-27T04:40:45.270Z,21.27
2018-06-27T04:43:12.951Z,21.27
2018-06-27T04:45:40.637Z,22.13
2018-06-27T04:48:08.397Z,22.45
2018-06-27T04:50:36.086Z,28.55
2018-06-27T04:53:03.792Z,28.85
2018-06-27T04:55:31.707Z,38.85
2018-06-27T04:57:59.367Z,26.05
2018-06-27T05:00:27.035Z,28.42
2018-06-27T05:02:54.675Z,28.80
2018-06-27T05:05:22.407Z,26.02
2018-06-27T05:07:50.147Z,27.80
2018-06-27T05:10:18.134Z,27.45
2018-06-27T05:12:45.757Z,24.18
2018-06-27T05:15:13.430Z,28.90
2018-06-27T05:17:41.061Z,25.08
2018-06-27T05:20:08.742Z,35.43
2018-06-27T05:22:36.395Z,26.23
2018-06-27T05:25:04.161Z,26.57
2018-06-27T05:27:31.843Z,26.93
2018-06-27T05:29:59.477Z,27.00
2018-06-27T05:32:27.118Z,23.70
2018-06-27T05:34:54.782Z,28.05
2018-06-27T05:37:22.380Z,25.75
2018-06-27T05:39:50.006Z,31.70
2018-06-27T05:42:17.613Z,27.02
2018-06-27T05:44:45.256Z,29.35
2018-06-27T05:47:12.907Z,27.15
2018-06-27T05:49:40.578Z,29.20
2018-06-27T05:52:08.281Z,30.45
2018-06-27T05:54:35.934Z,28.85
2018-06-27T05:57:03.660Z,26.02
2018-06-27T05:59:31.329Z,25.32
2018-06-27T06:01:59.010Z,27.20
2018-06-27T06:04:26.742Z,25.72
2018-06-27T06:06:54.429Z,24.67
2018-06-27T06:09:22.518Z,25.00
2018-06-27T06:11:50.165Z,27.00
2018-06-27T06:14:18.286Z,29.00
2018-06-27T06:16:46.994Z,30.50
2018-06-27T06:19:14.680Z,23.75
2018-06-27T06:21:42.412Z,26.77
2018-06-27T06:24:10.131Z,27.35
2018-06-27T06:26:38.041Z,21.55
2018-06-27T06:29:05.747Z,25.35
2018-06-27T06:31:33.443Z,23.12
2018-06-27T06:34:01.086Z,22.37
2018-06-27T06:36:28.885Z,23.00
2018-06-27T06:38:56.893Z,24.18
2018-06-27T06:41:24.533Z,23.60
2018-06-27T06:43:52.215Z,21.35
2018-06-27T06:46:19.862Z,23.85
2018-06-27T06:48:47.517Z,28.23
2018-06-27T06:51:15.223Z,21.00
2018-06-27T06:53:42.947Z,25.43
2018-06-27T06:56:10.609Z,23.25
2018-06-27T06:58:38.295Z,23.50
2018-06-27T07:01:06.011Z,21.27
2018-06-27T07:03:33.664Z,20.30
2018-06-27T07:06:01.757Z,25.88
2018-06-27T07:08:29.457Z,20.55
2018-06-27T07:10:57.130Z,28.57
2018-06-27T07:13:24.742Z,25.12
2018-06-27T07:15:52.589Z,20.43
2018-06-27T07:18:20.253Z,23.20
2018-06-27T07:20:47.899Z,21.75
2018-06-27T07:23:15.574Z,26.05
2018-06-27T07:25:43.209Z,27.58
2018-06-27T07:28:10.895Z,29.07
2018-06-27T07:30:38.530Z,24.15
2018-06-27T07:33:06.186Z,23.45
2018-06-27T07:35:33.818Z,22.77
2018-06-27T07:38:01.463Z,29.15
2018-06-27T07:40:29.123Z,26.12
2018-06-27T07:42:56.862Z,29.67
2018-06-27T07:45:24.528Z,26.20
2018-06-27T07:47:52.197Z,27.35
2018-06-27T07:50:20.167Z,26.23
2018-06-27T07:52:47.966Z,23.38
2018-06-27T07:55:15.741Z,21.33
2018-06-27T07:57:43.370Z,22.17
2018-06-27T08:00:11.077Z,34.78
2018-06-27T08:02:38.758Z,21.15
2018-06-27T08:05:06.321Z,22.32
2018-06-27T08:07:34.015Z,21.02
2018-06-27T08:10:01.743Z,21.35
2018-06-27T08:12:29.417Z,19.98
2018-06-27T08:14:57.202Z,21.27
2018-06-27T08:17:24.850Z,25.02
2018-06-27T08:19:52.511Z,19.95
2018-06-27T08:22:20.189Z,28.70
2018-06-27T08:24:47.844Z,18.70
2018-06-27T08:27:15.473Z,21.23
2018-06-27T08:29:43.160Z,21.70
2018-06-27T08:32:10.827Z,18.90
2018-06-27T08:34:38.479Z,25.23
2018-06-27T08:37:06.121Z,14.83
2018-06-27T08:39:33.795Z,11.90
2018-06-27T08:42:01.454Z,12.47
2018-06-27T08:44:29.179Z,11.80
2018-06-27T08:46:56.838Z,12.43
2018-06-27T08:49:24.504Z,10.90
2018-06-27T08:51:52.183Z,14.55
2018-06-27T08:54:19.885Z,9.63
2018-06-27T08:56:47.604Z,10.98
2018-06-27T08:59:15.291Z,15.90
2018-06-27T09:01:43.018Z,13.35
2018-06-27T09:04:10.711Z,12.13
2018-06-27T09:06:38.387Z,9.30
2018-06-27T09:09:08.317Z,11.10
2018-06-27T09:11:36.015Z,9.88
2018-06-27T09:14:03.791Z,7.75
2018-06-27T09:16:31.499Z,7.75
2018-06-27T09:18:59.141Z,7.25
2018-06-27T09:21:26.866Z,11.75
2018-06-27T09:23:54.511Z,10.13
2018-06-27T09:26:22.159Z,9.80
2018-06-27T09:28:49.975Z,6.60
2018-06-27T09:31:17.773Z,8.65
2018-06-27T09:33:45.382Z,7.95
2018-06-27T09:36:13.046Z,11.65
2018-06-27T09:38:40.718Z,10.82
2018-06-27T09:41:08.363Z,7.83
2018-06-27T09:43:35.994Z,6.30
2018-06-27T09:46:03.739Z,9.43
2018-06-27T09:48:31.388Z,6.58
2018-06-27T09:50:59.086Z,8.33
2018-06-27T09:53:26.791Z,11.28
2018-06-27T09:55:54.504Z,5.30
2018-06-27T09:58:22.161Z,6.45
2018-06-27T10:00:49.827Z,5.70
2018-06-27T10:03:17.517Z,5.30
2018-06-27T10:05:45.167Z,6.40
2018-06-27T10:08:12.850Z,4.67
2018-06-27T10:10:40.542Z,7.40
2018-06-27T10:13:08.218Z,4.35
2018-06-27T10:15:35.860Z,5.00
2018-06-27T10:18:03.554Z,6.65
2018-06-27T10:20:31.558Z,9.13
2018-06-27T10:22:59.193Z,5.93
2018-06-27T10:25:26.863Z,4.13
2018-06-27T10:27:54.566Z,4.63
2018-06-27T10:30:22.203Z,5.10
2018-06-27T10:32:49.859Z,4.60
2018-06-27T10:35:17.530Z,3.70
2018-06-27T10:37:45.199Z,6.97
2018-06-27T10:40:12.866Z,4.17
2018-06-27T10:42:40.542Z,4.43
2018-06-27T10:45:08.215Z,4.00
2018-06-27T10:47:35.977Z,4.87
2018-06-27T10:50:03.847Z,7.40
2018-06-27T10:52:31.544Z,4.33
2018-06-27T10:54:59.334Z,5.27
2018-06-27T10:57:27.051Z,4.63
2018-06-27T10:59:54.703Z,3.67
2018-06-27T11:02:22.507Z,5.20
2018-06-27T11:04:50.200Z,12.53
2018-06-27T11:07:17.885Z,7.90
2018-06-27T11:09:45.592Z,4.70
2018-06-27T11:12:13.368Z,3.83
2018-06-27T11:14:41.028Z,3.63
2018-06-27T11:17:08.793Z,3.37
2018-06-27T11:19:36.896Z,3.57
2018-06-27T11:22:04.651Z,3.97
2018-06-27T11:24:32.289Z,3.27
2018-06-27T11:27:00.074Z,3.20
2018-06-27T11:29:27.720Z,3.00
2018-06-27T11:31:55.397Z,5.30
2018-06-27T11:34:23.031Z,3.20
2018-06-27T11:36:50.994Z,3.10
2018-06-27T11:39:18.663Z,3.47
2018-06-27T11:41:46.369Z,3.57
2018-06-27T11:44:14.062Z,3.40
2018-06-27T11:46:41.814Z,5.50
2018-06-27T11:49:09.544Z,3.53
2018-06-27T11:51:37.351Z,4.57
2018-06-27T11:54:05.104Z,3.00
2018-06-27T11:56:33.562Z,4.30
2018-06-27T11:59:01.688Z,2.80
2018-06-27T12:01:29.683Z,7.10
2018-06-27T12:03:58.206Z,3.47
2018-06-27T12:06:26.158Z,3.40
2018-06-27T12:08:54.035Z,3.47
2018-06-27T12:11:22.132Z,3.30
2018-06-27T12:13:50.012Z,2.60
2018-06-27T12:16:18.149Z,4.40
2018-06-27T12:18:46.402Z,4.43
2018-06-27T12:21:14.243Z,3.57
2018-06-27T12:23:42.115Z,4.33
2018-06-27T12:26:10.188Z,6.90
2018-06-27T12:28:38.019Z,7.17
2018-06-27T12:31:05.886Z,4.70
2018-06-27T12:33:33.670Z,3.50
2018-06-27T12:36:01.526Z,4.70
2018-06-27T12:38:29.369Z,3.20
2018-06-27T12:40:57.228Z,3.43
2018-06-27T12:43:25.071Z,3.47
2018-06-27T12:45:52.924Z,3.30
2018-06-27T12:48:20.931Z,3.23
2018-06-27T12:50:48.811Z,3.40
2018-06-27T12:53:16.723Z,3.03
2018-06-27T12:55:44.599Z,3.20
2018-06-27T12:58:12.426Z,4.83
2018-06-27T13:00:40.238Z,7.13
2018-06-27T13:03:08.063Z,4.53
2018-06-27T13:05:35.860Z,3.30
2018-06-27T13:08:03.759Z,3.53
2018-06-27T13:10:31.585Z,3.67
2018-06-27T13:12:59.473Z,5.60
2018-06-27T13:15:27.285Z,16.03
2018-06-27T13:17:55.109Z,6.60
2018-06-27T13:20:22.946Z,18.37
2018-06-27T13:22:50.783Z,8.43
2018-06-27T13:25:18.593Z,8.43
2018-06-27T13:27:46.407Z,5.00
2018-06-27T13:30:14.338Z,6.40
2018-06-27T13:32:42.174Z,4.53
2018-06-27T13:35:10.079Z,4.63
2018-06-27T13:37:37.981Z,4.43
2018-06-27T13:40:05.897Z,3.60
2018-06-27T13:42:33.793Z,4.27
2018-06-27T13:45:01.704Z,3.53
2018-06-27T13:47:29.812Z,6.90
2018-06-27T13:49:57.624Z,7.03
2018-06-27T13:52:25.463Z,4.30
2018-06-27T13:54:57.734Z,3.67
2018-06-27T13:57:27.011Z,3.17
2018-06-27T13:59:55.202Z,3.57
2018-06-27T14:02:23.094Z,3.50
2018-06-27T14:04:51.008Z,2.83
2018-06-27T14:07:18.920Z,3.27
2018-06-27T14:09:46.893Z,2.60
2018-06-27T14:12:15.543Z,2.83
2018-06-27T14:14:43.373Z,2.90
2018-06-27T14:17:11.279Z,3.50
2018-06-27T14:19:39.096Z,4.50
2018-06-27T14:22:07.453Z,4.43
2018-06-27T14:24:35.646Z,3.30
2018-06-27T14:27:03.462Z,2.90
2018-06-27T14:29:31.377Z,3.63
2018-06-27T14:31:59.266Z,3.00
2018-06-27T14:34:27.079Z,3.17
2018-06-27T14:36:54.937Z,3.40
2018-06-27T14:39:22.745Z,4.37
2018-06-27T14:41:50.575Z,6.20
2018-06-27T14:44:18.646Z,3.10
2018-06-27T14:46:46.493Z,4.40
2018-06-27T14:49:14.399Z,4.20
2018-06-27T14:51:42.220Z,3.47
2018-06-27T14:54:10.152Z,5.07
2018-06-27T14:56:38.070Z,3.30
2018-06-27T14:59:06.010Z,3.40
2018-06-27T15:01:34.210Z,3.37
2018-06-27T15:04:02.068Z,3.63
2018-06-27T15:06:29.924Z,3.73
2018-06-27T15:08:57.771Z,3.70
2018-06-27T15:11:25.631Z,4.13
2018-06-27T15:13:53.427Z,3.37
2018-06-27T15:16:21.243Z,3.40
2018-06-27T15:18:49.051Z,5.37
2018-06-27T15:21:16.882Z,3.47
2018-06-27T15:23:44.828Z,3.40
2018-06-27T15:26:12.650Z,3.67
2018-06-27T15:28:40.461Z,5.13
2018-06-27T15:31:08.307Z,4.33
2018-06-27T15:33:36.198Z,6.77
2018-06-27T15:36:04.133Z,5.80
2018-06-27T15:38:31.966Z,6.60
2018-06-27T15:40:59.744Z,3.37
2018-06-27T15:43:27.546Z,2.87
2018-06-27T15:45:55.399Z,3.10
2018-06-27T15:48:23.361Z,3.00
2018-06-27T15:50:51.251Z,3.00
2018-06-27T15:53:19.094Z,3.87
2018-06-27T15:55:46.923Z,6.40
2018-06-27T15:58:14.765Z,5.73
2018-06-27T16:00:42.624Z,3.30
2018-06-27T16:03:10.438Z,3.73
2018-06-27T16:05:38.283Z,2.87
2018-06-27T16:08:06.133Z,4.77
2018-06-27T16:10:33.988Z,3.80
2018-06-27T16:13:01.785Z,4.50
2018-06-27T16:15:29.487Z,5.07
2018-06-27T16:17:57.109Z,3.20
2018-06-27T16:20:24.855Z,3.20
2018-06-27T16:22:52.528Z,3.53
2018-06-27T16:25:20.187Z,2.37
2018-06-27T16:27:47.834Z,2.80
2018-06-27T16:30:15.515Z,3.00
2018-06-27T16:32:43.266Z,3.03
2018-06-27T16:35:11.075Z,3.43
2018-06-27T16:37:38.918Z,5.33
2018-06-27T16:40:06.771Z,4.50
2018-06-27T16:42:34.584Z,2.50
2018-06-27T16:45:02.479Z,2.40
2018-06-27T16:47:30.262Z,5.63
2018-06-27T16:49:58.057Z,2.60
2018-06-27T16:52:25.888Z,4.03
2018-06-27T16:54:53.704Z,3.43
2018-06-27T16:57:21.574Z,2.80
2018-06-27T16:59:49.402Z,2.90
2018-06-27T17:02:17.232Z,2.60
2018-06-27T17:04:45.046Z,3.20
2018-06-27T17:07:12.817Z,3.40
2018-06-27T17:09:40.663Z,4.97
2018-06-27T17:12:08.457Z,3.40
2018-06-27T17:14:36.232Z,2.83
2018-06-27T17:17:04.112Z,5.83
2018-06-27T17:19:31.963Z,2.40
2018-06-27T17:21:59.749Z,5.00
2018-06-27T17:24:27.550Z,3.57
2018-06-27T17:26:55.381Z,3.47
2018-06-27T17:29:23.301Z,3.63
2018-06-27T17:31:51.154Z,8.60
2018-06-27T17:34:18.985Z,2.93
2018-06-27T17:36:47.244Z,3.10
2018-06-27T17:39:15.092Z,6.53
2018-06-27T17:41:42.964Z,2.87
2018-06-27T17:44:10.778Z,9.40
2018-06-27T17:46:38.572Z,3.30
2018-06-27T17:49:06.383Z,10.23
2018-06-27T17:51:34.199Z,4.70
2018-06-27T17:54:02.005Z,3.30
2018-06-27T17:56:29.939Z,2.70
2018-06-27T17:58:57.757Z,12.43
2018-06-27T18:01:25.590Z,3.30
2018-06-27T18:03:53.830Z,4.17
2018-06-27T18:06:21.642Z,3.30
2018-06-27T18:08:49.514Z,4.47
2018-06-27T18:11:17.281Z,2.97
2018-06-27T18:13:45.127Z,3.10
2018-06-27T18:16:12.922Z,3.77
2018-06-27T18:18:40.822Z,3.60
2018-06-27T18:21:08.649Z,7.03
2018-06-27T18:23:36.474Z,3.43
2018-06-27T18:26:04.654Z,4.20
2018-06-27T18:28:32.434Z,4.53
2018-06-27T18:31:00.262Z,3.90
2018-06-27T18:33:28.118Z,9.03
2018-06-27T18:35:55.943Z,5.20
2018-06-27T18:38:23.759Z,4.00
2018-06-27T18:40:51.603Z,4.00
2018-06-27T18:43:19.426Z,5.03
2018-06-27T18:45:47.319Z,4.37
2018-06-27T18:48:15.122Z,3.30
2018-06-27T18:50:42.924Z,4.20
2018-06-27T18:53:10.725Z,3.33
2018-06-27T18:55:38.568Z,6.97
2018-06-27T18:58:06.398Z,8.30
2018-06-27T19:00:34.221Z,3.57
2018-06-27T19:03:02.103Z,4.20
2018-06-27T19:05:29.890Z,3.90
2018-06-27T19:07:57.804Z,3.90
2018-06-27T19:10:25.679Z,2.93
2018-06-27T19:12:53.830Z,6.50
2018-06-27T19:15:21.751Z,3.30
2018-06-27T19:17:49.583Z,4.10
2018-06-27T19:20:17.459Z,3.77
2018-06-27T19:22:45.250Z,4.20
2018-06-27T19:25:13.067Z,3.63
2018-06-27T19:27:40.879Z,3.23
2018-06-27T19:30:09.186Z,3.90
2018-06-27T19:32:37.055Z,3.77
2018-06-27T19:35:05.183Z,3.57
2018-06-27T19:37:32.999Z,4.60
2018-06-27T19:40:02.057Z,4.03
2018-06-27T19:42:30.324Z,4.10
2018-06-27T19:45:00.810Z,4.67
2018-06-27T19:47:28.711Z,4.00
2018-06-27T19:49:56.568Z,4.30
2018-06-27T19:52:24.451Z,4.43
2018-06-27T19:54:52.228Z,3.70
2018-06-27T19:57:20.055Z,4.80
2018-06-27T19:59:47.841Z,7.10
2018-06-27T20:02:15.782Z,4.73
2018-06-27T20:04:43.617Z,9.10
2018-06-27T20:07:11.497Z,5.17
2018-06-27T20:09:39.360Z,4.47
2018-06-27T20:12:07.177Z,9.80
2018-06-27T20:14:35.073Z,4.80
2018-06-27T20:17:02.923Z,8.47
2018-06-27T20:19:30.765Z,5.20
2018-06-27T20:21:58.701Z,5.17
2018-06-27T20:24:27.410Z,6.25
2018-06-27T20:26:55.286Z,5.63
2018-06-27T20:29:23.091Z,5.30
2018-06-27T20:31:51.044Z,5.05
2018-06-27T20:34:18.919Z,6.10
2018-06-27T20:36:46.774Z,8.00
2018-06-27T20:39:14.621Z,7.20
2018-06-27T20:41:42.489Z,5.40
2018-06-27T20:44:10.371Z,4.70
2018-06-27T20:46:38.279Z,6.40
2018-06-27T20:49:06.134Z,7.80
2018-06-27T20:51:33.950Z,5.65
2018-06-27T20:54:01.984Z,6.33
2018-06-27T20:56:29.797Z,5.60
2018-06-27T20:58:57.688Z,5.90
2018-06-27T21:01:25.599Z,7.45
2018-06-27T21:03:53.416Z,9.50
2018-06-27T21:06:21.242Z,11.15
2018-06-27T21:08:49.078Z,5.10
2018-06-27T21:11:16.907Z,7.03
2018-06-27T21:13:44.727Z,6.70
2018-06-27T21:16:12.567Z,4.65
2018-06-27T21:18:40.255Z,5.30
2018-06-27T21:21:07.923Z,6.42
2018-06-27T21:23:35.706Z,5.83
2018-06-27T21:26:03.372Z,5.40
2018-06-27T21:28:31.061Z,5.10
2018-06-27T21:30:58.751Z,5.62
2018-06-27T21:33:26.387Z,5.70
2018-06-27T21:35:54.063Z,5.33
2018-06-27T21:38:21.693Z,5.05
2018-06-27T21:40:49.431Z,5.03
2018-06-27T21:43:17.063Z,6.62
2018-06-27T21:45:44.737Z,8.13
2018-06-27T21:48:12.387Z,5.05
2018-06-27T21:50:40.066Z,5.12
2018-06-27T21:53:07.777Z,6.12
2018-06-27T21:55:35.381Z,4.65
2018-06-27T21:58:03.166Z,5.08
2018-06-27T22:00:32.003Z,5.58
2018-06-27T22:03:00.151Z,5.78
2018-06-27T22:05:27.769Z,5.53
2018-06-27T22:07:55.523Z,4.60
2018-06-27T22:10:23.243Z,5.20
2018-06-27T22:12:50.932Z,5.40
2018-06-27T22:15:18.573Z,5.22
2018-06-27T22:17:46.386Z,5.45
2018-06-27T22:20:14.029Z,5.80
2018-06-27T22:22:41.667Z,5.60
2018-06-27T22:25:09.415Z,4.80
2018-06-27T22:27:37.048Z,4.90
2018-06-27T22:30:04.960Z,5.25
2018-06-27T22:32:32.842Z,4.90
2018-06-27T22:35:00.505Z,4.83
2018-06-27T22:37:28.159Z,7.28
2018-06-27T22:39:55.826Z,6.03
2018-06-27T22:42:23.571Z,4.72
2018-06-27T22:44:51.387Z,4.47
2018-06-27T22:47:19.019Z,4.67
2018-06-27T22:49:46.681Z,4.20
2018-06-27T22:52:14.382Z,4.10
2018-06-27T22:54:42.066Z,4.37
2018-06-27T22:57:09.703Z,5.08
2018-06-27T22:59:37.378Z,4.67
2018-06-27T23:02:05.372Z,5.35
2018-06-27T23:04:33.053Z,5.10
2018-06-27T23:07:00.731Z,5.00
2018-06-27T23:09:28.387Z,5.03
2018-06-27T23:11:56.053Z,4.90
2018-06-27T23:14:23.726Z,4.58
2018-06-27T23:16:51.337Z,4.75
2018-06-27T23:19:19.020Z,5.15
2018-06-27T23:21:46.655Z,5.08
2018-06-27T23:24:14.274Z,6.95
2018-06-27T23:26:41.915Z,6.33
2018-06-27T23:29:09.557Z,5.25
2018-06-27T23:31:37.227Z,4.75
2018-06-27T23:34:04.920Z,5.60
2018-06-27T23:36:32.652Z,5.58
2018-06-27T23:39:00.308Z,5.40
2018-06-27T23:41:27.972Z,5.60
2018-06-27T23:43:55.593Z,15.20
2018-06-27T23:46:23.230Z,5.95
2018-06-27T23:48:50.898Z,5.28
2018-06-27T23:51:18.559Z,5.87
2018-06-27T23:53:46.218Z,5.78
2018-06-27T23:56:13.899Z,6.45
2018-06-27T23:58:41.560Z,5.85
